Time;durP1;ratioP1;P1;durP2;ratioP2;P2;SDS_P1;SDS_P2;PMS_P1;PMS_P2;Temp;Humidity;BMP_temperature;BMP_pressure;BME280_temperature;BME280_humidity;BME280_pressure;Samples;Min_cycle;Max_cycle;Signal;HPM_P1;HPM_P2
2021/04/22 00:01:23;;;;;;;14.55;2.90;;;8.30;67.30;;;;;;4982298;28;20030;-80
2021/04/22 00:03:49;;;;;;;12.48;3.20;;;8.20;68.80;;;;;;4989429;28;20028;-80
2021/04/22 00:06:14;;;;;;;13.43;2.47;;;8.20;68.40;;;;;;5000446;28;20120;-80
2021/04/22 00:08:40;;;;;;;16.60;2.70;;;8.20;68.40;;;;;;5000479;28;20052;-80
2021/04/22 00:11:06;;;;;;;18.67;2.92;;;8.20;68.40;;;;;;4985398;28;20391;-80
2021/04/22 00:13:31;;;;;;;13.68;3.20;;;8.10;69.10;;;;;;4997120;28;20383;-80
2021/04/22 00:16:00;;;;;;;9.40;2.47;;;8.10;69.60;;;;;;5025032;28;20034;-80
2021/04/22 00:18:25;;;;;;;14.32;3.35;;;8.10;69.60;;;;;;4999562;28;20022;-80
2021/04/22 00:20:51;;;;;;;16.63;3.63;;;8.00;69.20;;;;;;5016689;28;20022;-80
2021/04/22 00:23:17;;;;;;;16.38;2.80;;;8.00;69.50;;;;;;4984224;28;20038;-80
2021/04/22 00:25:44;;;;;;;12.80;2.85;;;8.00;69.20;;;;;;5016706;28;20528;-80
2021/04/22 00:28:12;;;;;;;13.93;2.97;;;7.90;69.20;;;;;;5004981;28;20514;-80
2021/04/22 00:30:39;;;;;;;19.65;4.78;;;7.90;69.90;;;;;;4996811;28;20024;-80
2021/04/22 00:33:11;;;;;;;16.15;3.00;;;7.90;69.80;;;;;;4961382;28;20041;-80
2021/04/22 00:35:37;;;;;;;12.65;3.35;;;7.80;69.50;;;;;;5007978;28;20384;-80
2021/04/22 00:38:25;;;;;;;11.85;2.55;;;7.80;70.20;;;;;;5005968;28;20029;-80
2021/04/22 00:40:53;;;;;;;15.23;2.85;;;7.80;70.50;;;;;;4979132;28;20033;-79
2021/04/22 00:43:20;;;;;;;13.25;2.60;;;7.70;69.90;;;;;;4978419;28;20041;-79
2021/04/22 00:45:47;;;;;;;14.38;3.58;;;7.70;70.40;;;;;;5009624;28;20019;-80
2021/04/22 00:48:26;;;;;;;13.40;2.70;;;7.70;70.70;;;;;;4987230;28;20054;-80
2021/04/22 00:50:55;;;;;;;13.07;2.83;;;7.60;70.70;;;;;;4975128;28;20035;-80
2021/04/22 00:53:21;;;;;;;10.20;2.65;;;7.60;71.10;;;;;;4973042;28;20018;-80
2021/04/22 00:55:48;;;;;;;14.30;4.00;;;7.50;70.70;;;;;;4970467;28;20027;-80
2021/04/22 00:58:14;;;;;;;14.82;2.80;;;7.50;71.00;;;;;;4966780;28;20033;-80
2021/04/22 01:01:00;;;;;;;10.18;2.38;;;7.40;70.80;;;;;;4944217;28;20121;-80
2021/04/22 01:03:27;;;;;;;16.50;3.28;;;7.40;72.00;;;;;;4959994;28;20038;-79
2021/04/22 01:05:56;;;;;;;14.63;3.10;;;7.40;70.90;;;;;;4957683;28;20027;-80
2021/04/22 01:08:22;;;;;;;10.57;3.00;;;7.30;71.60;;;;;;4956666;28;20062;-80
2021/04/22 01:10:48;;;;;;;14.65;3.78;;;7.30;72.30;;;;;;4967836;28;20420;-80
2021/04/22 01:13:41;;;;;;;15.50;2.97;;;7.30;72.00;;;;;;4967163;28;20063;-80
2021/04/22 01:16:07;;;;;;;13.27;2.90;;;7.20;71.70;;;;;;4975364;28;20039;-80
2021/04/22 01:18:32;;;;;;;9.43;2.63;;;7.20;71.70;;;;;;4956991;28;20049;-80
2021/04/22 01:21:01;;;;;;;12.05;3.03;;;7.10;72.10;;;;;;4954139;28;20540;-79
2021/04/22 01:23:27;;;;;;;14.10;2.80;;;7.10;73.30;;;;;;4967107;28;20038;-79
2021/04/22 01:25:53;;;;;;;12.70;2.92;;;7.10;73.60;;;;;;4973346;28;20072;-80
2021/04/22 01:28:23;;;;;;;13.52;2.67;;;7.10;73.00;;;;;;4961787;28;20106;-80
2021/04/22 01:31:16;;;;;;;12.55;3.15;;;7.10;73.30;;;;;;4953983;28;20099;-80
2021/04/22 01:33:42;;;;;;;8.55;2.55;;;7.00;73.30;;;;;;4966875;28;20035;-79
2021/04/22 01:36:08;;;;;;;16.73;3.58;;;7.00;73.40;;;;;;4967108;28;20357;-80
2021/04/22 01:38:36;;;;;;;13.43;3.30;;;7.00;73.50;;;;;;4947788;28;20473;-80
2021/04/22 01:41:03;;;;;;;15.30;3.03;;;7.00;73.80;;;;;;4971312;28;20101;-79
2021/04/22 01:43:29;;;;;;;14.50;3.00;;;6.90;74.00;;;;;;4957698;28;20052;-80
2021/04/22 01:45:55;;;;;;;14.52;2.90;;;6.90;74.30;;;;;;4965138;28;20599;-79
2021/04/22 01:48:22;;;;;;;17.80;3.13;;;6.90;73.60;;;;;;4963443;28;20027;-79
2021/04/22 01:50:48;;;;;;;13.73;3.42;;;6.90;74.30;;;;;;4982527;28;20462;-80
2021/04/22 01:53:14;;;;;;;11.70;3.05;;;6.90;74.20;;;;;;4990282;28;20109;-80
2021/04/22 01:55:48;;;;;;;16.42;3.50;;;6.80;74.00;;;;;;4982946;28;20022;-80
2021/04/22 01:58:19;;;;;;;12.10;3.22;;;6.80;74.70;;;;;;4992134;28;20113;-80
2021/04/22 02:00:52;;;;;;;9.30;2.88;;;6.80;74.50;;;;;;4989614;28;20069;-80
2021/04/22 02:03:20;;;;;;;15.02;3.17;;;6.70;74.50;;;;;;4981970;28;20050;-80
2021/04/22 02:05:45;;;;;;;11.80;3.05;;;6.70;74.40;;;;;;4991988;28;20030;-80
2021/04/22 02:08:12;;;;;;;11.57;2.88;;;6.70;75.10;;;;;;4977815;28;20495;-80
2021/04/22 02:10:39;;;;;;;14.93;3.20;;;6.60;74.50;;;;;;5003243;28;20065;-80
2021/04/22 02:13:07;;;;;;;16.30;3.05;;;6.60;74.40;;;;;;4975703;28;20125;-80
2021/04/22 02:15:33;;;;;;;15.55;3.20;;;6.60;74.40;;;;;;5005439;28;20406;-79
2021/04/22 02:17:59;;;;;;;9.68;3.00;;;6.50;75.10;;;;;;5011193;28;20035;-79
2021/04/22 02:20:25;;;;;;;15.10;3.25;;;6.50;75.30;;;;;;4995246;28;20034;-80
2021/04/22 02:22:51;;;;;;;12.88;3.15;;;6.50;75.00;;;;;;4976276;28;20045;-80
2021/04/22 02:25:20;;;;;;;15.27;2.60;;;6.40;75.40;;;;;;4978588;28;20018;-79
2021/04/22 02:27:46;;;;;;;11.85;3.53;;;6.40;77.30;;;;;;4991739;28;20120;-79
2021/04/22 02:30:14;;;;;;;10.40;3.67;;;6.40;76.80;;;;;;4991619;28;20031;-80
2021/04/22 02:32:40;;;;;;;11.60;3.15;;;6.30;76.90;;;;;;4981651;28;20429;-80
2021/04/22 02:35:08;;;;;;;15.20;3.05;;;6.30;76.30;;;;;;4991531;28;20065;-80
2021/04/22 02:37:34;;;;;;;17.90;3.53;;;6.30;76.80;;;;;;4991493;28;20480;-79
2021/04/22 02:40:00;;;;;;;13.35;2.95;;;6.30;76.60;;;;;;4992717;28;20018;-80
2021/04/22 02:42:26;;;;;;;14.85;3.17;;;6.20;77.10;;;;;;4991344;28;20484;-80
2021/04/22 02:44:52;;;;;;;13.55;3.35;;;6.20;77.40;;;;;;4984546;28;20042;-80
2021/04/22 02:47:18;;;;;;;15.07;3.28;;;6.20;76.70;;;;;;4972071;28;20023;-80
2021/04/22 02:49:43;;;;;;;12.90;2.95;;;6.10;77.30;;;;;;4959764;28;20141;-80
2021/04/22 02:52:09;;;;;;;14.80;2.90;;;6.10;77.60;;;;;;4985375;28;20468;-80
2021/04/22 02:54:35;;;;;;;16.67;3.38;;;6.10;78.70;;;;;;4992267;28;20036;-80
2021/04/22 02:57:01;;;;;;;14.70;3.17;;;6.00;78.80;;;;;;4972000;28;20481;-80
2021/04/22 02:59:27;;;;;;;16.45;3.97;;;6.00;78.70;;;;;;4983711;28;20080;-79
2021/04/22 03:01:53;;;;;;;15.38;3.92;;;6.00;79.00;;;;;;4985072;28;20054;-79
2021/04/22 03:04:18;;;;;;;13.75;3.67;;;6.00;78.50;;;;;;4964634;28;20022;-80
2021/04/22 03:06:44;;;;;;;10.18;2.85;;;6.00;78.80;;;;;;4972049;28;20049;-79
2021/04/22 03:09:09;;;;;;;12.88;3.22;;;5.90;78.80;;;;;;4990917;28;20040;-79
2021/04/22 03:11:35;;;;;;;11.05;3.20;;;5.90;79.20;;;;;;4976587;28;20030;-79
2021/04/22 03:14:02;;;;;;;16.60;3.33;;;5.90;79.00;;;;;;4971979;28;20038;-80
2021/04/22 03:16:28;;;;;;;13.63;3.17;;;5.90;79.30;;;;;;4965837;28;20043;-80
2021/04/22 03:18:53;;;;;;;15.88;3.13;;;5.90;79.10;;;;;;4980756;28;20037;-80
2021/04/22 03:21:19;;;;;;;15.57;3.45;;;5.80;79.40;;;;;;4965999;28;20033;-80
2021/04/22 03:23:45;;;;;;;13.95;3.50;;;5.80;78.80;;;;;;4959227;28;20019;-80
2021/04/22 03:26:10;;;;;;;16.38;3.53;;;5.80;79.10;;;;;;4962319;28;20034;-80
2021/04/22 03:28:36;;;;;;;16.42;3.38;;;5.70;78.90;;;;;;4969956;28;20034;-80
2021/04/22 03:31:02;;;;;;;10.98;3.30;;;5.70;79.80;;;;;;4973166;28;20497;-80
2021/04/22 03:33:30;;;;;;;10.85;3.22;;;5.70;79.90;;;;;;4974766;28;20026;-79
2021/04/22 03:35:56;;;;;;;12.52;3.30;;;5.70;79.70;;;;;;4974741;28;20045;-80
2021/04/22 03:38:22;;;;;;;16.35;3.20;;;5.70;80.40;;;;;;4974790;28;20515;-80
2021/04/22 03:40:47;;;;;;;18.33;3.70;;;5.70;81.00;;;;;;4973379;28;20027;-79
2021/04/22 03:43:13;;;;;;;15.63;3.72;;;5.60;81.10;;;;;;4981530;28;20058;-79
2021/04/22 03:45:39;;;;;;;12.40;2.90;;;5.60;80.90;;;;;;4978346;28;20049;-80
2021/04/22 03:48:05;;;;;;;16.88;3.40;;;5.60;81.30;;;;;;4978310;28;20455;-80
2021/04/22 03:50:31;;;;;;;14.00;3.10;;;5.60;82.00;;;;;;4978006;28;20440;-79
2021/04/22 03:52:56;;;;;;;11.25;3.03;;;5.60;82.30;;;;;;4975058;28;20050;-80
2021/04/22 03:55:22;;;;;;;17.05;3.33;;;5.60;82.30;;;;;;4948664;28;20481;-80
2021/04/22 03:57:48;;;;;;;13.38;4.20;;;5.60;82.50;;;;;;4976046;28;20026;-80
2021/04/22 04:00:17;;;;;;;12.90;3.33;;;5.60;82.60;;;;;;4978398;28;20522;-80
2021/04/22 04:02:43;;;;;;;13.35;3.20;;;5.60;82.50;;;;;;4994440;28;20022;-80
2021/04/22 04:05:09;;;;;;;13.48;3.45;;;5.60;82.70;;;;;;4978625;28;20353;-80
2021/04/22 04:07:35;;;;;;;14.65;3.67;;;5.60;82.60;;;;;;4977358;28;20026;-80
2021/04/22 04:10:03;;;;;;;12.73;2.83;;;5.60;82.30;;;;;;4985619;28;20012;-80
2021/04/22 04:12:28;;;;;;;12.15;3.10;;;5.60;82.40;;;;;;4987165;28;20480;-80
2021/04/22 04:14:55;;;;;;;14.30;3.47;;;5.60;82.50;;;;;;4977097;28;20030;-79
2021/04/22 04:17:20;;;;;;;14.18;3.22;;;5.60;82.80;;;;;;4974594;28;20042;-80
2021/04/22 04:19:46;;;;;;;14.85;4.03;;;5.60;82.60;;;;;;4988075;28;20026;-80
2021/04/22 04:22:12;;;;;;;12.18;3.25;;;5.60;82.80;;;;;;4945199;28;20113;-80
2021/04/22 04:24:37;;;;;;;16.77;3.28;;;5.60;82.90;;;;;;4976778;28;20480;-80
2021/04/22 04:27:03;;;;;;;12.18;3.00;;;5.60;82.70;;;;;;4977531;28;20045;-80
2021/04/22 04:29:29;;;;;;;13.43;3.00;;;5.60;82.90;;;;;;4977293;28;20900;-80
2021/04/22 04:31:55;;;;;;;11.38;2.67;;;5.60;82.60;;;;;;4986142;28;20034;-80
2021/04/22 04:34:20;;;;;;;13.77;3.40;;;5.60;83.00;;;;;;4997138;28;20467;-80
2021/04/22 04:36:47;;;;;;;11.13;2.40;;;5.60;83.20;;;;;;5003410;28;20039;-80
2021/04/22 04:39:14;;;;;;;13.25;3.00;;;5.60;83.30;;;;;;4977547;28;20085;-80
2021/04/22 04:41:41;;;;;;;8.00;2.20;;;5.60;83.30;;;;;;4993330;28;20022;-80
2021/04/22 04:44:07;;;;;;;10.93;2.65;;;5.60;83.60;;;;;;4973967;28;20029;-80
2021/04/22 04:46:33;;;;;;;12.85;2.90;;;5.60;83.90;;;;;;4993058;28;20018;-80
2021/04/22 04:48:59;;;;;;;13.43;2.50;;;5.60;83.90;;;;;;4979530;28;20428;-80
2021/04/22 04:51:24;;;;;;;12.20;2.60;;;5.60;83.90;;;;;;4993240;28;20054;-80
2021/04/22 04:53:51;;;;;;;11.68;2.75;;;5.60;83.90;;;;;;4992150;28;20455;-80
2021/04/22 04:56:18;;;;;;;10.30;2.17;;;5.70;84.00;;;;;;4998617;28;20535;-80
2021/04/22 04:58:45;;;;;;;7.35;1.98;;;5.70;83.90;;;;;;5001233;28;20027;-80
2021/04/22 05:01:11;;;;;;;10.68;2.65;;;5.70;84.20;;;;;;4974700;28;20388;-78
2021/04/22 05:03:37;;;;;;;8.57;2.20;;;5.70;84.20;;;;;;4988727;28;20109;-80
2021/04/22 05:06:03;;;;;;;8.52;2.40;;;5.70;84.40;;;;;;4993357;28;20022;-80
2021/04/22 05:08:29;;;;;;;12.75;2.08;;;5.70;84.50;;;;;;4999255;28;20029;-80
2021/04/22 05:10:55;;;;;;;7.07;2.10;;;5.80;84.40;;;;;;4993070;28;20028;-80
2021/04/22 05:13:20;;;;;;;8.27;2.00;;;5.80;84.00;;;;;;4976789;28;20065;-80
2021/04/22 05:15:46;;;;;;;9.27;2.13;;;5.80;83.90;;;;;;4976928;28;20026;-79
2021/04/22 05:18:12;;;;;;;10.20;2.55;;;5.80;84.20;;;;;;4973340;28;20529;-79
2021/04/22 05:20:37;;;;;;;9.35;2.15;;;5.90;84.40;;;;;;4982982;28;20109;-79
2021/04/22 05:23:06;;;;;;;7.72;1.90;;;5.90;84.20;;;;;;4992682;28;20477;-79
2021/04/22 05:25:32;;;;;;;10.85;2.58;;;5.90;84.40;;;;;;4976607;28;20030;-79
2021/04/22 05:27:57;;;;;;;9.27;1.73;;;5.90;84.30;;;;;;4957277;28;20050;-79
2021/04/22 05:30:24;;;;;;;7.82;1.83;;;5.90;84.40;;;;;;4973191;28;20019;-79
2021/04/22 05:32:49;;;;;;;6.53;1.80;;;6.00;84.20;;;;;;4971921;28;20472;-79
2021/04/22 05:35:18;;;;;;;7.15;1.90;;;6.00;84.00;;;;;;4981024;28;20101;-80
2021/04/22 05:37:44;;;;;;;10.23;1.92;;;6.00;84.00;;;;;;4959920;28;20542;-81
2021/04/22 05:40:10;;;;;;;7.72;1.40;;;6.00;84.10;;;;;;4991818;28;20069;-81
2021/04/22 05:42:36;;;;;;;9.27;1.83;;;6.00;84.10;;;;;;4986377;28;20424;-79
2021/04/22 05:45:02;;;;;;;7.78;1.63;;;6.10;84.30;;;;;;4974355;28;20011;-79
2021/04/22 05:47:28;;;;;;;8.15;1.92;;;6.10;84.10;;;;;;4973529;28;20041;-79
2021/04/22 05:49:54;;;;;;;7.35;1.75;;;6.10;84.10;;;;;;4997832;23;20559;-82
2021/04/22 05:52:20;;;;;;;8.98;2.00;;;6.10;83.90;;;;;;4974065;28;20069;-82
2021/04/22 05:54:46;;;;;;;7.45;1.90;;;6.10;84.30;;;;;;4989646;28;20058;-82
2021/04/22 05:57:11;;;;;;;6.30;1.85;;;6.10;83.40;;;;;;4992227;28;20056;-82
2021/04/22 05:59:37;;;;;;;6.82;1.85;;;6.20;83.40;;;;;;4976722;28;20072;-81
2021/04/22 06:02:03;;;;;;;6.15;1.50;;;6.20;82.90;;;;;;4974859;28;20092;-82
2021/04/22 06:04:29;;;;;;;6.55;1.85;;;6.20;82.40;;;;;;4974273;28;20018;-82
2021/04/22 06:06:54;;;;;;;9.18;1.73;;;6.20;82.20;;;;;;4974773;28;20041;-81
2021/04/22 06:09:20;;;;;;;7.45;1.40;;;6.30;82.00;;;;;;4988775;28;20456;-83
2021/04/22 06:11:46;;;;;;;7.22;1.45;;;6.30;82.40;;;;;;4990918;28;20038;-83
2021/04/22 06:14:11;;;;;;;6.07;1.52;;;6.40;81.30;;;;;;4973697;28;20117;-83
2021/04/22 06:16:37;;;;;;;7.25;2.75;;;6.40;80.90;;;;;;4992775;28;20037;-82
2021/04/22 06:19:04;;;;;;;6.53;1.60;;;6.40;80.60;;;;;;4988760;28;20105;-82
2021/04/22 06:21:42;;;;;;;6.47;1.30;;;6.50;80.40;;;;;;4990747;28;20098;-83
2021/04/22 06:24:08;;;;;;;6.25;1.98;;;6.60;80.10;;;;;;4975783;28;20019;-82
2021/04/22 06:26:35;;;;;;;3.33;1.20;;;6.60;79.80;;;;;;4990917;28;20057;-82
2021/04/22 06:29:04;;;;;;;6.80;1.70;;;6.70;79.50;;;;;;4983676;28;20350;-83
2021/04/22 06:34:51;;;;;;;6.32;1.65;;;6.80;78.80;;;;;;4992720;28;20032;-82
2021/04/22 06:37:17;;;;;;;4.38;1.33;;;6.80;78.50;;;;;;4990583;28;20101;-82
2021/04/22 06:39:43;;;;;;;7.32;1.73;;;6.90;78.40;;;;;;4975343;28;20480;-82
2021/04/22 06:42:09;;;;;;;6.93;1.88;;;7.00;78.40;;;;;;4987500;28;20117;-82
2021/04/22 06:44:36;;;;;;;6.70;1.55;;;7.00;78.00;;;;;;4958446;28;20464;-81
2021/04/22 06:47:03;;;;;;;5.53;1.50;;;7.10;78.00;;;;;;4977989;28;20500;-84
2021/04/22 06:49:29;;;;;;;8.23;1.73;;;7.10;77.90;;;;;;4955865;28;20035;-83
2021/04/22 06:51:55;;;;;;;5.50;1.50;;;7.20;77.80;;;;;;4972279;28;20027;-82
2021/04/22 06:54:20;;;;;;;6.93;1.50;;;7.30;77.50;;;;;;4988179;28;20391;-82
2021/04/22 06:56:46;;;;;;;6.25;1.33;;;7.40;77.60;;;;;;4988282;28;20084;-81
2021/04/22 06:59:12;;;;;;;9.57;2.25;;;7.50;77.10;;;;;;4977566;28;20156;-82
2021/04/22 07:01:38;;;;;;;8.57;1.45;;;7.60;77.00;;;;;;4972074;28;20496;-82
2021/04/22 07:04:04;;;;;;;5.72;1.67;;;7.60;76.80;;;;;;4984829;28;20468;-82
2021/04/22 07:06:30;;;;;;;6.40;1.40;;;7.70;76.70;;;;;;4991156;28;20030;-82
2021/04/22 07:08:56;;;;;;;5.85;1.50;;;7.80;76.50;;;;;;4975077;28;20025;-82
2021/04/22 07:11:22;;;;;;;5.57;1.42;;;7.80;76.20;;;;;;4991211;28;20113;-83
2021/04/22 07:13:48;;;;;;;3.42;1.02;;;7.90;76.50;;;;;;4971788;28;20476;-83
2021/04/22 07:16:13;;;;;;;8.85;2.17;;;8.00;76.40;;;;;;4966047;28;20037;-83
2021/04/22 07:18:39;;;;;;;6.68;1.60;;;8.10;75.80;;;;;;4979225;28;20022;-82
2021/04/22 07:21:05;;;;;;;10.38;2.05;;;8.10;76.10;;;;;;5011689;28;20094;-81
2021/04/22 07:23:31;;;;;;;5.68;1.55;;;8.20;74.30;;;;;;4991947;28;20033;-82
2021/04/22 07:25:57;;;;;;;9.75;1.88;;;8.30;74.90;;;;;;4984968;28;20446;-81
2021/04/22 07:28:22;;;;;;;7.15;2.00;;;8.30;75.00;;;;;;4965115;28;20026;-81
2021/04/22 07:30:49;;;;;;;7.00;1.70;;;8.40;74.30;;;;;;4987615;28;20097;-82
2021/04/22 07:33:15;;;;;;;5.90;1.80;;;8.40;74.60;;;;;;4975582;28;20122;-82
2021/04/22 07:35:41;;;;;;;9.70;1.85;;;8.40;74.30;;;;;;4994569;28;20026;-81
2021/04/22 07:38:13;;;;;;;8.27;1.88;;;8.50;74.80;;;;;;4978345;28;20084;-81
2021/04/22 07:40:40;;;;;;;7.10;2.20;;;8.60;74.60;;;;;;4977850;28;20027;-83
2021/04/22 07:43:06;;;;;;;8.55;1.67;;;8.70;74.60;;;;;;4985859;28;20080;-83
2021/04/22 07:45:35;;;;;;;7.43;2.20;;;8.80;74.40;;;;;;4977805;28;20018;-82
2021/04/22 07:48:03;;;;;;;6.30;1.63;;;8.90;74.10;;;;;;4989935;28;20475;-83
2021/04/22 07:50:29;;;;;;;5.35;1.55;;;8.90;73.80;;;;;;4990698;28;20046;-82
2021/04/22 07:52:54;;;;;;;8.23;1.65;;;9.10;73.20;;;;;;4983236;28;20495;-83
2021/04/22 07:55:27;;;;;;;9.20;2.33;;;9.20;72.60;;;;;;4992173;28;20022;-82
2021/04/22 07:57:56;;;;;;;8.48;1.85;;;9.20;71.50;;;;;;4994255;28;20061;-83
2021/04/22 08:00:32;;;;;;;13.23;2.22;;;9.40;71.40;;;;;;4994578;28;20132;-82
2021/04/22 08:02:58;;;;;;;5.78;1.60;;;9.50;69.90;;;;;;4994072;28;20096;-83
2021/04/22 08:05:28;;;;;;;9.80;1.88;;;9.60;70.80;;;;;;4962088;28;20026;-83
2021/04/22 08:12:06;;;;;;;10.75;1.98;;;9.80;70.80;;;;;;4994745;28;20387;-83
2021/04/22 08:14:33;;;;;;;4.55;1.40;;;10.00;71.20;;;;;;4989429;28;20543;-83
2021/04/22 08:17:00;;;;;;;7.72;1.75;;;10.20;69.50;;;;;;4994143;28;20117;-83
2021/04/22 08:19:26;;;;;;;7.60;2.13;;;10.30;68.90;;;;;;4985780;28;20034;-83
2021/04/22 08:21:52;;;;;;;7.85;1.70;;;10.40;68.20;;;;;;4994077;28;20036;-82
2021/04/22 08:24:18;;;;;;;7.38;1.90;;;10.40;68.00;;;;;;4980203;28;20428;-83
2021/04/22 08:26:44;;;;;;;7.68;2.00;;;10.50;68.40;;;;;;4961485;28;20033;-83
2021/04/22 08:29:20;;;;;;;7.70;1.95;;;10.50;68.20;;;;;;4977615;28;20053;-83
2021/04/22 08:31:47;;;;;;;5.97;2.08;;;10.60;67.80;;;;;;4977498;28;20061;-83
2021/04/22 08:34:12;;;;;;;9.82;2.28;;;10.60;68.10;;;;;;4961594;28;20030;-83
2021/04/22 08:36:38;;;;;;;8.18;2.13;;;10.70;68.40;;;;;;4993674;28;20053;-83
2021/04/22 08:39:08;;;;;;;5.03;1.70;;;10.70;68.50;;;;;;4970013;28;20041;-83
2021/04/22 08:41:35;;;;;;;8.97;1.77;;;10.80;68.10;;;;;;4974520;28;20030;-83
2021/04/22 08:44:02;;;;;;;9.02;1.90;;;10.90;67.30;;;;;;4993891;28;20026;-83
2021/04/22 08:46:30;;;;;;;10.93;2.17;;;11.00;66.20;;;;;;4993678;28;20023;-83
2021/04/22 08:48:56;;;;;;;7.55;1.95;;;11.10;65.00;;;;;;4976792;28;20045;-83
2021/04/22 08:51:24;;;;;;;9.90;2.00;;;11.20;65.00;;;;;;4968903;28;20035;-83
2021/04/22 08:53:50;;;;;;;5.60;1.52;;;11.20;64.30;;;;;;5011288;28;20034;-83
2021/04/22 08:56:19;;;;;;;9.40;1.77;;;11.30;64.80;;;;;;4980479;28;20120;-82
2021/04/22 08:58:46;;;;;;;4.53;1.60;;;11.30;64.50;;;;;;4983933;28;20070;-82
2021/04/22 09:01:14;;;;;;;5.40;1.67;;;11.50;65.30;;;;;;4997012;28;20037;-83
2021/04/22 09:03:45;;;;;;;7.05;1.75;;;11.60;66.00;;;;;;4994865;28;20022;-83
2021/04/22 09:06:11;;;;;;;;;;;11.70;64.90;;;;;;4971090;28;20030;-83
2021/04/22 09:08:38;;;;;;;7.68;2.05;;;11.80;63.30;;;;;;5000200;28;19956;-83
2021/04/22 09:11:07;;;;;;;10.30;2.28;;;11.80;62.50;;;;;;5006594;28;20033;-83
2021/04/22 09:13:34;;;;;;;9.18;2.30;;;11.90;63.30;;;;;;4990570;28;20483;-82
2021/04/22 09:16:09;;;;;;;9.43;2.17;;;11.90;61.80;;;;;;4980442;28;20391;-83
2021/04/22 09:18:46;;;;;;;8.88;2.03;;;12.00;63.10;;;;;;5001042;28;20022;-82
2021/04/22 09:21:33;;;;;;;9.20;2.03;;;12.00;63.00;;;;;;4976676;28;20573;-83
2021/04/22 09:24:02;;;;;;;4.90;1.50;;;12.10;62.40;;;;;;4978361;28;20121;-82
2021/04/22 09:26:56;;;;;;;8.85;2.47;;;12.20;62.60;;;;;;4988263;28;20494;-83
2021/04/22 09:29:32;;;;;;;9.57;1.80;;;12.20;62.30;;;;;;4963595;28;20030;-82
2021/04/22 09:32:13;;;;;;;11.90;2.10;;;12.40;61.90;;;;;;4976554;28;20353;-82
2021/04/22 09:34:44;;;;;;;7.25;2.13;;;12.40;61.70;;;;;;4990118;28;20395;-82
2021/04/22 09:37:10;;;;;;;6.25;1.92;;;12.50;61.60;;;;;;4976759;28;20023;-82
2021/04/22 09:39:36;;;;;;;4.65;1.70;;;12.60;58.50;;;;;;4979265;28;20030;-82
2021/04/22 09:42:10;;;;;;;9.57;2.70;;;12.60;58.60;;;;;;4976056;28;20121;-83
2021/04/22 09:44:55;;;;;;;6.82;1.85;;;12.70;58.30;;;;;;4986837;28;20026;-82
2021/04/22 09:47:23;;;;;;;8.90;2.10;;;12.70;57.50;;;;;;4998375;28;20430;-82
2021/04/22 09:49:52;;;;;;;4.32;1.67;;;12.70;58.30;;;;;;4976189;28;20050;-82
2021/04/22 09:52:20;;;;;;;6.55;2.10;;;12.80;58.70;;;;;;5025495;28;20556;-83
2021/04/22 09:54:52;;;;;;;5.82;1.90;;;12.90;58.70;;;;;;5008815;28;20030;-83
2021/04/22 09:57:22;;;;;;;6.60;1.52;;;12.90;57.70;;;;;;5029774;28;20033;-82
2021/04/22 09:59:48;;;;;;;5.28;2.25;;;13.00;57.10;;;;;;4999741;28;20137;-82
2021/04/22 10:02:13;;;;;;;7.82;2.00;;;13.10;57.40;;;;;;4975116;28;20053;-83
2021/04/22 10:08:06;;;;;;;5.28;1.77;;;13.40;57.60;;;;;;5020805;28;20033;-83
2021/04/22 10:10:33;;;;;;;6.88;1.95;;;13.60;55.60;;;;;;5002126;28;20395;-84
2021/04/22 10:13:03;;;;;;;7.43;2.35;;;13.70;57.00;;;;;;4978100;28;20064;-84
2021/04/22 10:15:33;;;;;;;4.68;1.60;;;13.80;56.00;;;;;;4996977;28;20024;-84
2021/04/22 10:18:16;;;;;;;5.18;1.30;;;13.90;55.60;;;;;;4997761;28;20030;-84
2021/04/22 10:20:42;;;;;;;10.75;2.40;;;14.10;56.10;;;;;;4984438;28;20045;-85
2021/04/22 10:23:10;;;;;;;7.97;1.92;;;14.20;55.30;;;;;;4976181;28;20057;-87
2021/04/22 10:25:41;;;;;;;8.48;1.80;;;14.30;55.10;;;;;;4983784;28;20099;-85
2021/04/22 10:28:08;;;;;;;;;;;14.30;54.60;;;;;;4996400;28;20018;-85
2021/04/22 10:30:35;;;;;;;8.45;1.92;;;14.30;53.80;;;;;;4991777;28;19921;-84
2021/04/22 10:33:01;;;;;;;6.40;1.88;;;14.30;54.10;;;;;;4961231;28;20041;-86
2021/04/22 10:35:31;;;;;;;7.15;1.75;;;14.30;54.90;;;;;;4995200;28;20368;-85
2021/04/22 10:38:01;;;;;;;6.43;2.17;;;14.40;54.50;;;;;;4994492;28;20108;-86
2021/04/22 10:40:30;;;;;;;6.10;1.80;;;14.40;54.60;;;;;;4983307;28;20093;-85
2021/04/22 10:42:57;;;;;;;7.30;1.92;;;14.50;54.00;;;;;;4995178;28;20022;-85
2021/04/22 10:45:35;;;;;;;7.18;1.85;;;14.60;54.50;;;;;;4981003;28;20041;-85
2021/04/22 10:48:00;;;;;;;5.60;1.65;;;14.60;52.20;;;;;;4995107;28;20022;-86
2021/04/22 10:50:34;;;;;;;6.93;1.80;;;14.70;53.30;;;;;;4992753;28;20053;-86
2021/04/22 10:53:01;;;;;;;6.05;1.83;;;14.80;52.20;;;;;;4983433;28;20030;-86
2021/04/22 10:55:33;;;;;;;6.35;1.60;;;14.80;52.20;;;;;;4994854;28;20034;-85
2021/04/22 10:58:14;;;;;;;7.38;1.92;;;14.90;51.80;;;;;;4995345;28;20033;-86
2021/04/22 11:00:55;;;;;;;5.90;1.52;;;15.00;50.60;;;;;;5012367;28;20026;-86
2021/04/22 11:03:33;;;;;;;3.17;1.42;;;15.00;51.70;;;;;;4984991;28;20027;-85
2021/04/22 11:06:17;;;;;;;6.63;2.30;;;15.10;51.60;;;;;;5009132;28;20010;-84
2021/04/22 11:08:51;;;;;;;7.47;2.20;;;15.10;49.60;;;;;;4974404;28;20026;-83
2021/04/22 11:11:21;;;;;;;8.55;1.98;;;15.10;49.80;;;;;;4992996;28;20054;-83
2021/04/22 11:13:49;;;;;;;8.37;2.10;;;15.20;50.60;;;;;;5005183;28;20113;-85
2021/04/22 11:16:15;;;;;;;7.30;1.90;;;15.20;50.60;;;;;;4988869;28;20639;-83
2021/04/22 11:18:50;;;;;;;5.95;1.65;;;15.20;51.50;;;;;;4994602;28;20574;-83
2021/04/22 11:21:34;;;;;;;7.35;2.13;;;15.30;50.00;;;;;;4988845;28;20023;-84
2021/04/22 11:24:03;;;;;;;6.72;1.85;;;15.30;51.20;;;;;;4970951;28;20030;-84
2021/04/22 11:26:31;;;;;;;5.03;1.60;;;15.40;51.10;;;;;;5006747;28;20038;-86
2021/04/22 11:29:16;;;;;;;6.05;2.08;;;15.50;51.50;;;;;;4989869;28;20049;-86
2021/04/22 11:31:50;;;;;;;8.45;2.17;;;15.60;51.30;;;;;;5005623;28;20068;-86
2021/04/22 11:34:17;;;;;;;8.00;2.63;;;15.70;51.40;;;;;;4989892;28;20030;-84
2021/04/22 11:36:47;;;;;;;6.20;1.77;;;15.90;52.10;;;;;;4974794;28;20042;-85
2021/04/22 11:39:13;;;;;;;4.82;1.48;;;16.00;49.10;;;;;;4992387;28;20026;-84
2021/04/22 11:41:50;;;;;;;6.57;1.55;;;16.10;50.00;;;;;;4973734;28;20464;-84
2021/04/22 11:44:15;;;;;;;3.55;1.48;;;16.20;49.70;;;;;;4992414;28;20054;-84
2021/04/22 11:46:46;;;;;;;4.40;1.45;;;16.30;50.00;;;;;;4991817;28;20030;-84
2021/04/22 11:49:25;;;;;;;5.60;1.77;;;16.40;50.20;;;;;;5003284;23;20062;-76
2021/04/22 11:51:52;;;;;;;5.60;1.60;;;16.50;48.30;;;;;;4989491;28;20160;-76
2021/04/22 11:54:23;;;;;;;7.43;1.90;;;16.60;49.50;;;;;;4987751;28;20065;-76
2021/04/22 11:57:06;;;;;;;6.63;1.85;;;16.60;49.60;;;;;;4989241;28;20105;-79
2021/04/22 11:59:33;;;;;;;6.10;1.80;;;16.70;48.90;;;;;;4973481;28;20113;-85
2021/04/22 12:02:04;;;;;;;7.22;2.13;;;16.80;48.60;;;;;;4990709;28;20042;-85
2021/04/22 12:04:37;;;;;;;5.40;1.88;;;16.80;48.30;;;;;;4986526;28;20021;-88
2021/04/22 12:07:06;;;;;;;5.63;1.85;;;16.90;48.20;;;;;;4987205;28;20027;-88
2021/04/22 12:09:33;;;;;;;4.15;1.60;;;17.00;48.00;;;;;;4990517;28;20022;-87
2021/04/22 12:12:11;;;;;;;9.35;1.75;;;17.00;47.70;;;;;;4990292;28;20038;-88
2021/04/22 12:14:36;;;;;;;5.60;1.70;;;17.10;48.60;;;;;;4991931;28;20102;-87
2021/04/22 12:17:02;;;;;;;4.32;1.70;;;17.10;48.00;;;;;;4990637;28;20138;-88
2021/04/22 12:19:30;;;;;;;6.03;1.98;;;17.20;47.30;;;;;;4958891;28;20895;-87
2021/04/22 12:22:02;;;;;;;4.68;1.65;;;17.20;47.80;;;;;;4992442;28;20093;-88
2021/04/22 12:24:30;;;;;;;5.18;1.80;;;17.30;47.50;;;;;;4995346;28;20463;-88
2021/04/22 12:26:56;;;;;;;4.82;1.73;;;17.30;46.90;;;;;;4994674;28;20590;-88
2021/04/22 12:29:23;;;;;;;7.35;2.10;;;17.40;47.10;;;;;;4994019;28;20034;-87
2021/04/22 12:31:51;;;;;;;4.20;1.60;;;17.50;46.40;;;;;;4980128;28;20027;-88
2021/04/22 12:34:23;;;;;;;6.50;1.98;;;17.50;47.20;;;;;;4994064;28;20057;-87
2021/04/22 12:37:06;;;;;;;6.20;1.75;;;17.60;46.60;;;;;;4993654;28;20022;-87
2021/04/22 12:39:35;;;;;;;6.95;1.75;;;17.60;45.80;;;;;;4984623;28;20023;-87
2021/04/22 12:42:20;;;;;;;7.25;2.72;;;17.70;46.60;;;;;;4989768;28;20088;-87
2021/04/22 12:45:01;;;;;;;6.63;2.28;;;17.70;47.40;;;;;;4994461;28;20027;-87
2021/04/22 12:47:42;;;;;;;10.65;2.33;;;17.80;48.10;;;;;;4981510;28;20034;-87
2021/04/22 12:50:15;;;;;;;7.43;2.10;;;17.80;46.70;;;;;;5009110;28;20124;-86
2021/04/22 12:52:42;;;;;;;6.07;1.92;;;17.90;47.30;;;;;;4981820;28;20053;-89
2021/04/22 12:55:12;;;;;;;8.45;2.03;;;17.90;45.80;;;;;;4996796;28;20029;-87
2021/04/22 12:57:37;;;;;;;6.32;2.30;;;18.00;47.50;;;;;;5013874;28;20342;-88
2021/04/22 13:00:10;;;;;;;6.03;2.33;;;18.10;46.10;;;;;;4980633;28;20030;-87
2021/04/22 13:02:37;;;;;;;4.55;1.75;;;18.10;45.40;;;;;;5013866;28;20026;-88
2021/04/22 13:05:14;;;;;;;7.90;2.42;;;18.10;46.50;;;;;;4979791;28;20058;-88
2021/04/22 13:07:44;;;;;;;4.35;1.80;;;18.30;46.50;;;;;;4981991;28;20030;-87